createdAt,value
2017-06-17T00:00:13.459Z,929.62
2017-06-17T00:00:32.767Z,929.58
2017-06-17T00:00:52.187Z,929.6
2017-06-17T00:01:11.003Z,929.59
2017-06-17T00:01:29.801Z,929.57
2017-06-17T00:01:49.127Z,929.58
2017-06-17T00:02:08.450Z,929.6
2017-06-17T00:02:27.769Z,929.6
2017-06-17T00:02:46.579Z,929.57
2017-06-17T00:03:05.870Z,929.58
2017-06-17T00:03:25.180Z,929.58
2017-06-17T00:03:43.974Z,929.59
2017-06-17T00:04:03.279Z,929.59
2017-06-17T00:04:22.581Z,929.55
2017-06-17T00:04:41.918Z,929.53
2017-06-17T00:05:01.210Z,929.57
2017-06-17T00:05:20.604Z,929.58
2017-06-17T00:05:39.930Z,929.6
2017-06-17T00:05:59.444Z,929.6
2017-06-17T00:06:18.743Z,929.62
2017-06-17T00:06:38.074Z,929.61
2017-06-17T00:06:57.407Z,929.61
2017-06-17T00:07:16.746Z,929.62
2017-06-17T00:07:36.085Z,929.63
2017-06-17T00:07:55.474Z,929.58
2017-06-17T00:08:14.271Z,929.62
2017-06-17T00:08:33.063Z,929.61
2017-06-17T00:08:51.887Z,929.59
2017-06-17T00:09:10.678Z,929.61
2017-06-17T00:09:28.974Z,929.59
2017-06-17T00:09:47.751Z,929.63
2017-06-17T00:10:06.545Z,929.59
2017-06-17T00:10:25.337Z,929.6
2017-06-17T00:10:44.666Z,929.58
2017-06-17T00:11:03.960Z,929.6
2017-06-17T00:11:22.756Z,929.61
2017-06-17T00:11:42.069Z,929.61
2017-06-17T00:12:01.373Z,929.61
2017-06-17T00:12:20.707Z,929.61
2017-06-17T00:12:40.026Z,929.61
2017-06-17T00:12:59.349Z,929.64
2017-06-17T00:13:18.659Z,929.64
2017-06-17T00:13:37.961Z,929.62
2017-06-17T00:13:57.248Z,929.66
2017-06-17T00:14:16.535Z,929.67
2017-06-17T00:14:35.312Z,929.67
2017-06-17T00:14:54.621Z,929.65
2017-06-17T00:15:13.917Z,929.66
2017-06-17T00:15:33.239Z,929.67
2017-06-17T00:15:52.553Z,929.65
2017-06-17T00:16:11.883Z,929.63
2017-06-17T00:16:30.146Z,929.66
2017-06-17T00:16:49.467Z,929.63
2017-06-17T00:17:08.786Z,929.62
2017-06-17T00:17:28.086Z,929.63
2017-06-17T00:17:47.399Z,929.64
2017-06-17T00:18:06.699Z,929.64
2017-06-17T00:18:26.003Z,929.63
2017-06-17T00:18:45.329Z,929.59
2017-06-17T00:19:04.643Z,929.64
2017-06-17T00:19:23.942Z,929.62
2017-06-17T00:19:42.705Z,929.59
2017-06-17T00:20:02.056Z,929.62
2017-06-17T00:20:20.859Z,929.58
2017-06-17T00:20:40.230Z,929.59
2017-06-17T00:20:59.521Z,929.6
2017-06-17T00:21:17.792Z,929.56
2017-06-17T00:21:37.089Z,929.57
2017-06-17T00:21:55.343Z,929.59
2017-06-17T00:22:14.665Z,929.59
2017-06-17T00:22:33.463Z,929.58
2017-06-17T00:22:52.752Z,929.58
2017-06-17T00:23:11.561Z,929.58
2017-06-17T00:23:29.836Z,929.58
2017-06-17T00:23:49.108Z,929.57
2017-06-17T00:24:07.894Z,929.54
2017-06-17T00:24:27.228Z,929.55
2017-06-17T00:24:46.527Z,929.55
2017-06-17T00:25:05.829Z,929.54
2017-06-17T00:25:25.145Z,929.55
2017-06-17T00:25:43.941Z,929.54
2017-06-17T00:26:03.242Z,929.5
2017-06-17T00:26:21.524Z,929.53
2017-06-17T00:26:40.319Z,929.53
2017-06-17T00:26:59.605Z,929.49
2017-06-17T00:27:18.898Z,929.53
2017-06-17T00:27:38.207Z,929.53
2017-06-17T00:27:56.990Z,929.54
2017-06-17T00:28:16.297Z,929.54
2017-06-17T00:28:35.587Z,929.48
2017-06-17T00:28:54.379Z,929.45
2017-06-17T00:29:13.699Z,929.47
2017-06-17T00:29:32.987Z,929.46
2017-06-17T00:29:52.309Z,929.49
2017-06-17T00:30:11.131Z,929.43
2017-06-17T00:30:29.951Z,929.45
2017-06-17T00:30:49.258Z,929.43
2017-06-17T00:31:08.086Z,929.42
2017-06-17T00:31:26.899Z,929.44
2017-06-17T00:31:46.225Z,929.39
2017-06-17T00:32:05.543Z,929.39
2017-06-17T00:32:24.857Z,929.42
2017-06-17T00:32:43.684Z,929.4
2017-06-17T00:33:03.063Z,929.39
2017-06-17T00:33:22.374Z,929.4
2017-06-17T00:33:41.696Z,929.43
2017-06-17T00:34:00.971Z,929.44
2017-06-17T00:34:19.782Z,929.45
2017-06-17T00:34:38.624Z,929.44
2017-06-17T00:34:57.989Z,929.45
2017-06-17T00:35:16.776Z,929.45
2017-06-17T00:35:36.101Z,929.47
2017-06-17T00:35:55.528Z,929.42
2017-06-17T00:36:14.881Z,929.46
2017-06-17T00:36:33.167Z,929.47
2017-06-17T00:36:51.969Z,929.44
2017-06-17T00:37:11.311Z,929.42
2017-06-17T00:37:30.631Z,929.43
2017-06-17T00:37:49.919Z,929.44
2017-06-17T00:38:09.237Z,929.43
2017-06-17T00:38:28.630Z,929.44
2017-06-17T00:38:47.421Z,929.44
2017-06-17T00:39:06.210Z,929.45
2017-06-17T00:39:25.510Z,929.45
2017-06-17T00:39:44.853Z,929.4
2017-06-17T00:40:04.163Z,929.42
2017-06-17T00:40:22.980Z,929.4
2017-06-17T00:40:42.460Z,929.42
2017-06-17T00:41:01.763Z,929.45
2017-06-17T00:41:21.093Z,929.42
2017-06-17T00:41:40.404Z,929.41
2017-06-17T00:41:59.715Z,929.42
2017-06-17T00:42:19.041Z,929.46
2017-06-17T00:42:38.329Z,929.46
2017-06-17T00:42:57.630Z,929.45
2017-06-17T00:43:16.952Z,929.45
2017-06-17T00:43:36.252Z,929.44
2017-06-17T00:43:55.549Z,929.45
2017-06-17T00:44:14.846Z,929.43
2017-06-17T00:44:34.168Z,929.42
2017-06-17T00:44:53.471Z,929.43
2017-06-17T00:45:12.782Z,929.41
2017-06-17T00:45:32.078Z,929.42
2017-06-17T00:45:51.392Z,929.42
2017-06-17T00:46:10.726Z,929.43
2017-06-17T00:46:29.505Z,929.46
2017-06-17T00:46:48.825Z,929.46
2017-06-17T00:47:08.112Z,929.44
2017-06-17T00:47:26.400Z,929.44
2017-06-17T00:47:45.732Z,929.45
2017-06-17T00:48:05.026Z,929.41
2017-06-17T00:48:23.804Z,929.43
2017-06-17T00:48:43.134Z,929.45
2017-06-17T00:49:02.432Z,929.48
2017-06-17T00:49:21.749Z,929.43
2017-06-17T00:49:41.060Z,929.42
2017-06-17T00:50:00.371Z,929.44
2017-06-17T00:50:19.705Z,929.45
2017-06-17T00:50:39.183Z,929.43
2017-06-17T00:50:58.485Z,929.43
2017-06-17T00:51:17.828Z,929.42
2017-06-17T00:51:37.133Z,929.44
2017-06-17T00:51:56.437Z,929.46
2017-06-17T00:52:15.258Z,929.5
2017-06-17T00:52:34.532Z,929.52
2017-06-17T00:52:53.854Z,929.5
2017-06-17T00:53:13.166Z,929.5
2017-06-17T00:53:32.499Z,929.46
2017-06-17T00:53:51.824Z,929.46
2017-06-17T00:54:11.122Z,929.52
2017-06-17T00:54:29.905Z,929.5
2017-06-17T00:54:49.199Z,929.5
2017-06-17T00:55:08.497Z,929.5
2017-06-17T00:55:27.295Z,929.52
2017-06-17T00:55:46.602Z,929.47
2017-06-17T00:56:05.903Z,929.49
2017-06-17T00:56:24.689Z,929.48
2017-06-17T00:56:43.993Z,929.5
2017-06-17T00:57:03.318Z,929.47
2017-06-17T00:57:22.642Z,929.51
2017-06-17T00:57:41.960Z,929.48
2017-06-17T00:58:01.270Z,929.5
2017-06-17T00:58:20.046Z,929.48
2017-06-17T00:58:39.382Z,929.49
2017-06-17T00:58:58.717Z,929.53
2017-06-17T00:59:18.022Z,929.48
2017-06-17T00:59:36.288Z,929.49
2017-06-17T00:59:55.618Z,929.5
2017-06-17T01:00:14.923Z,929.48
2017-06-17T01:00:34.680Z,929.46
2017-06-17T01:00:53.995Z,929.45
2017-06-17T01:01:12.791Z,929.49
2017-06-17T01:01:31.601Z,929.49
2017-06-17T01:01:50.918Z,929.47
2017-06-17T01:02:09.715Z,929.5
2017-06-17T01:02:29.045Z,929.47
2017-06-17T01:02:48.347Z,929.48
2017-06-17T01:03:07.667Z,929.48
2017-06-17T01:03:25.958Z,929.49
2017-06-17T01:03:44.744Z,929.47
2017-06-17T01:04:03.548Z,929.5
2017-06-17T01:04:22.843Z,929.47
2017-06-17T01:04:41.635Z,929.48
2017-06-17T01:05:00.419Z,929.48
2017-06-17T01:05:19.730Z,929.49
2017-06-17T01:05:39.020Z,929.47
2017-06-17T01:05:58.338Z,929.44
2017-06-17T01:06:17.104Z,929.45
2017-06-17T01:06:35.891Z,929.48
2017-06-17T01:06:54.678Z,929.46
2017-06-17T01:07:13.967Z,929.42
2017-06-17T01:07:32.767Z,929.43
2017-06-17T01:07:52.076Z,929.42
2017-06-17T01:08:10.869Z,929.41
2017-06-17T01:08:30.189Z,929.41
2017-06-17T01:08:49.493Z,929.41
2017-06-17T01:09:08.803Z,929.4
2017-06-17T01:09:27.587Z,929.39
2017-06-17T01:09:46.911Z,929.44
2017-06-17T01:10:05.702Z,929.43
2017-06-17T01:10:25.023Z,929.45
2017-06-17T01:10:43.816Z,929.44
2017-06-17T01:11:02.613Z,929.44
2017-06-17T01:11:21.943Z,929.42
2017-06-17T01:11:40.738Z,929.41
2017-06-17T01:11:59.512Z,929.45
2017-06-17T01:12:18.806Z,929.44
2017-06-17T01:12:38.111Z,929.38
2017-06-17T01:12:57.437Z,929.42
2017-06-17T01:13:16.765Z,929.43
2017-06-17T01:13:36.100Z,929.42
2017-06-17T01:13:54.894Z,929.44
2017-06-17T01:14:14.193Z,929.4
2017-06-17T01:14:33.023Z,929.48
2017-06-17T01:14:52.317Z,929.44
2017-06-17T01:15:11.635Z,929.43
2017-06-17T01:15:30.428Z,929.45
2017-06-17T01:15:49.727Z,929.47
2017-06-17T01:16:09.057Z,929.42
2017-06-17T01:16:27.336Z,929.43
2017-06-17T01:16:46.652Z,929.42
2017-06-17T01:17:05.424Z,929.47
2017-06-17T01:17:24.723Z,929.48
2017-06-17T01:17:44.005Z,929.47
2017-06-17T01:18:02.796Z,929.47
2017-06-17T01:18:22.107Z,929.46
2017-06-17T01:18:40.921Z,929.46
2017-06-17T01:18:59.697Z,929.49
2017-06-17T01:19:19.001Z,929.45
2017-06-17T01:19:38.348Z,929.47
2017-06-17T01:19:57.675Z,929.44
2017-06-17T01:20:16.469Z,929.48
2017-06-17T01:20:35.799Z,929.47
2017-06-17T01:20:55.109Z,929.44
2017-06-17T01:21:13.362Z,929.48
2017-06-17T01:21:32.643Z,929.46
2017-06-17T01:21:51.963Z,929.44
2017-06-17T01:22:11.260Z,929.48
2017-06-17T01:22:29.536Z,929.44
2017-06-17T01:22:48.869Z,929.44
2017-06-17T01:23:07.663Z,929.46
2017-06-17T01:23:26.963Z,929.39
2017-06-17T01:23:46.272Z,929.42
2017-06-17T01:24:05.087Z,929.4
2017-06-17T01:24:23.872Z,929.41
2017-06-17T01:24:43.187Z,929.44
2017-06-17T01:25:02.505Z,929.4
2017-06-17T01:25:21.871Z,929.38
2017-06-17T01:25:40.646Z,929.38
2017-06-17T01:25:59.913Z,929.38
2017-06-17T01:26:19.225Z,929.39
2017-06-17T01:26:38.029Z,929.42
2017-06-17T01:26:57.319Z,929.42
2017-06-17T01:27:16.110Z,929.41
2017-06-17T01:27:35.424Z,929.38
2017-06-17T01:27:54.727Z,929.42
2017-06-17T01:28:13.521Z,929.36
2017-06-17T01:28:32.323Z,929.42
2017-06-17T01:28:51.107Z,929.38
2017-06-17T01:29:08.891Z,929.4
2017-06-17T01:29:28.185Z,929.41
2017-06-17T01:29:47.007Z,929.42
2017-06-17T01:30:06.303Z,929.38
2017-06-17T01:30:24.622Z,929.41
2017-06-17T01:30:43.929Z,929.44
2017-06-17T01:31:02.725Z,929.41
2017-06-17T01:31:22.019Z,929.41
2017-06-17T01:31:41.319Z,929.4
2017-06-17T01:32:00.640Z,929.43
2017-06-17T01:32:19.426Z,929.41
2017-06-17T01:32:37.701Z,929.42
2017-06-17T01:32:57.004Z,929.43
2017-06-17T01:33:16.288Z,929.45
2017-06-17T01:33:35.075Z,929.41
2017-06-17T01:33:54.392Z,929.43
2017-06-17T01:34:13.700Z,929.44
2017-06-17T01:34:33.025Z,929.46
2017-06-17T01:34:52.329Z,929.44
2017-06-17T01:35:10.605Z,929.45
2017-06-17T01:35:29.387Z,929.45
2017-06-17T01:35:48.678Z,929.46
2017-06-17T01:36:07.991Z,929.49
2017-06-17T01:36:26.779Z,929.44
2017-06-17T01:36:45.597Z,929.46
2017-06-17T01:37:04.405Z,929.47
2017-06-17T01:37:23.222Z,929.47
2017-06-17T01:37:42.499Z,929.49
2017-06-17T01:38:01.810Z,929.47
2017-06-17T01:38:21.105Z,929.46
2017-06-17T01:38:40.415Z,929.51
2017-06-17T01:38:59.696Z,929.49
2017-06-17T01:39:19.019Z,929.51
2017-06-17T01:39:37.815Z,929.53
2017-06-17T01:39:57.156Z,929.56
2017-06-17T01:40:15.975Z,929.54
2017-06-17T01:40:35.273Z,929.54
2017-06-17T01:40:54.604Z,929.55
2017-06-17T01:41:13.900Z,929.6
2017-06-17T01:41:32.695Z,929.57
2017-06-17T01:41:52.007Z,929.52
2017-06-17T01:42:10.798Z,929.56
2017-06-17T01:42:30.096Z,929.54
2017-06-17T01:42:49.412Z,929.58
2017-06-17T01:43:08.784Z,929.57
2017-06-17T01:43:28.104Z,929.58
2017-06-17T01:43:47.439Z,929.59
2017-06-17T01:44:06.747Z,929.54
2017-06-17T01:44:26.073Z,929.58
2017-06-17T01:44:45.369Z,929.58
2017-06-17T01:45:04.670Z,929.55
2017-06-17T01:45:23.973Z,929.56
2017-06-17T01:45:43.300Z,929.56
2017-06-17T01:46:02.583Z,929.57
2017-06-17T01:46:21.415Z,929.53
2017-06-17T01:46:40.705Z,929.56
2017-06-17T01:46:59.526Z,929.53
2017-06-17T01:47:18.849Z,929.57
2017-06-17T01:47:38.160Z,929.53
2017-06-17T01:47:56.953Z,929.53
2017-06-17T01:48:15.715Z,929.53
2017-06-17T01:48:35.009Z,929.53
2017-06-17T01:48:53.793Z,929.6
2017-06-17T01:49:13.084Z,929.57
2017-06-17T01:49:32.399Z,929.55
2017-06-17T01:49:51.719Z,929.6
2017-06-17T01:50:11.043Z,929.55
2017-06-17T01:50:29.839Z,929.6
2017-06-17T01:50:49.130Z,929.54
2017-06-17T01:51:07.911Z,929.6
2017-06-17T01:51:27.195Z,929.6
2017-06-17T01:51:46.499Z,929.58
2017-06-17T01:52:04.792Z,929.62
2017-06-17T01:52:24.087Z,929.62
2017-06-17T01:52:43.376Z,929.63
2017-06-17T01:53:02.690Z,929.61
2017-06-17T01:53:22.011Z,929.62
2017-06-17T01:53:41.306Z,929.64
2017-06-17T01:54:00.632Z,929.64
2017-06-17T01:54:19.960Z,929.65
2017-06-17T01:54:38.760Z,929.6
2017-06-17T01:54:58.088Z,929.61
2017-06-17T01:55:17.380Z,929.65
2017-06-17T01:55:36.714Z,929.6
2017-06-17T01:55:56.013Z,929.63
2017-06-17T01:56:15.311Z,929.66
2017-06-17T01:56:34.614Z,929.64
2017-06-17T01:56:53.927Z,929.65
2017-06-17T01:57:13.252Z,929.66
2017-06-17T01:57:32.571Z,929.64
2017-06-17T01:57:51.870Z,929.65
2017-06-17T01:58:11.164Z,929.67
2017-06-17T01:58:30.473Z,929.67
2017-06-17T01:58:49.814Z,929.66
2017-06-17T01:59:09.126Z,929.67
2017-06-17T01:59:27.923Z,929.68
2017-06-17T01:59:47.250Z,929.68
2017-06-17T02:00:05.547Z,929.66
2017-06-17T02:00:24.868Z,929.64
2017-06-17T02:00:44.173Z,929.61
2017-06-17T02:01:03.491Z,929.61
2017-06-17T02:01:21.753Z,929.66
2017-06-17T02:01:41.037Z,929.63
2017-06-17T02:02:00.382Z,929.67
2017-06-17T02:02:19.204Z,929.6
2017-06-17T02:02:38.492Z,929.6
2017-06-17T02:02:57.799Z,929.63
2017-06-17T02:03:17.146Z,929.61
2017-06-17T02:03:36.473Z,929.65
2017-06-17T02:03:55.883Z,929.64
2017-06-17T02:04:15.198Z,929.61
2017-06-17T02:04:34.491Z,929.6
2017-06-17T02:04:53.790Z,929.59
2017-06-17T02:05:12.582Z,929.62
2017-06-17T02:05:32.133Z,929.61
2017-06-17T02:05:51.476Z,929.61
2017-06-17T02:06:10.792Z,929.6
2017-06-17T02:06:29.596Z,929.61
2017-06-17T02:06:48.913Z,929.61
2017-06-17T02:07:08.232Z,929.63
2017-06-17T02:07:26.524Z,929.61
2017-06-17T02:07:45.837Z,929.62
2017-06-17T02:08:05.131Z,929.64
2017-06-17T02:08:24.444Z,929.64
2017-06-17T02:08:43.754Z,929.62
2017-06-17T02:09:03.071Z,929.64
2017-06-17T02:09:21.860Z,929.59
2017-06-17T02:09:40.655Z,929.62
2017-06-17T02:09:59.984Z,929.6
2017-06-17T02:10:19.308Z,929.59
2017-06-17T02:10:38.602Z,929.6
2017-06-17T02:10:57.906Z,929.6
2017-06-17T02:11:17.268Z,929.62
2017-06-17T02:11:36.588Z,929.64
2017-06-17T02:11:55.888Z,929.62
2017-06-17T02:12:14.155Z,929.57
2017-06-17T02:12:33.456Z,929.59
2017-06-17T02:12:52.743Z,929.58
2017-06-17T02:13:12.057Z,929.58
2017-06-17T02:13:31.375Z,929.6
2017-06-17T02:13:50.690Z,929.54
2017-06-17T02:14:09.991Z,929.55
2017-06-17T02:14:29.288Z,929.55
2017-06-17T02:14:48.607Z,929.55
2017-06-17T02:15:07.899Z,929.55
2017-06-17T02:15:27.215Z,929.53
2017-06-17T02:15:46.514Z,929.53
2017-06-17T02:16:05.808Z,929.58
2017-06-17T02:16:24.079Z,929.56
2017-06-17T02:16:43.408Z,929.55
2017-06-17T02:17:02.713Z,929.56
2017-06-17T02:17:22.027Z,929.55
2017-06-17T02:17:41.338Z,929.56
2017-06-17T02:18:00.653Z,929.54
2017-06-17T02:18:19.439Z,929.54
2017-06-17T02:18:38.730Z,929.54
2017-06-17T02:18:58.030Z,929.58
2017-06-17T02:19:16.796Z,929.58
2017-06-17T02:19:36.114Z,929.58
2017-06-17T02:19:55.422Z,929.58
2017-06-17T02:20:14.730Z,929.61
2017-06-17T02:20:33.500Z,929.61
2017-06-17T02:20:52.805Z,929.61
2017-06-17T02:21:11.593Z,929.59
2017-06-17T02:21:30.902Z,929.62
2017-06-17T02:21:50.220Z,929.58
2017-06-17T02:22:09.535Z,929.57
2017-06-17T02:22:28.852Z,929.57
2017-06-17T02:22:47.622Z,929.57
2017-06-17T02:23:06.958Z,929.58
2017-06-17T02:23:26.299Z,929.61
2017-06-17T02:23:45.617Z,929.62
2017-06-17T02:24:04.938Z,929.6
2017-06-17T02:24:24.256Z,929.62
2017-06-17T02:24:43.054Z,929.62
2017-06-17T02:25:02.412Z,929.62
2017-06-17T02:25:20.710Z,929.59
2017-06-17T02:25:40.020Z,929.57
2017-06-17T02:25:59.334Z,929.57
2017-06-17T02:26:18.637Z,929.56
2017-06-17T02:26:37.407Z,929.6
2017-06-17T02:26:56.725Z,929.56
2017-06-17T02:27:14.999Z,929.54
2017-06-17T02:27:34.293Z,929.54
2017-06-17T02:27:53.612Z,929.53
2017-06-17T02:28:12.931Z,929.51
2017-06-17T02:28:32.250Z,929.55
2017-06-17T02:28:51.559Z,929.51
2017-06-17T02:29:10.335Z,929.55
2017-06-17T02:29:29.651Z,929.54
2017-06-17T02:29:48.938Z,929.5
2017-06-17T02:30:08.230Z,929.53
2017-06-17T02:30:27.541Z,929.58
2017-06-17T02:30:46.874Z,929.52
2017-06-17T02:31:05.678Z,929.51
2017-06-17T02:31:24.991Z,929.53
2017-06-17T02:31:43.774Z,929.56
2017-06-17T02:32:02.555Z,929.55
2017-06-17T02:32:21.352Z,929.52
2017-06-17T02:32:40.690Z,929.5
2017-06-17T02:32:59.489Z,929.48
2017-06-17T02:33:18.856Z,929.53
2017-06-17T02:33:37.634Z,929.5
2017-06-17T02:33:56.974Z,929.53
2017-06-17T02:34:16.282Z,929.54
2017-06-17T02:34:35.576Z,929.53
2017-06-17T02:34:54.892Z,929.55
2017-06-17T02:35:14.227Z,929.57
2017-06-17T02:35:32.514Z,929.56
2017-06-17T02:35:51.329Z,929.52
2017-06-17T02:36:10.614Z,929.58
2017-06-17T02:36:29.948Z,929.55
2017-06-17T02:36:49.238Z,929.55
2017-06-17T02:37:08.548Z,929.51
2017-06-17T02:37:27.834Z,929.5
2017-06-17T02:37:47.133Z,929.54
2017-06-17T02:38:06.430Z,929.52
2017-06-17T02:38:25.227Z,929.54
2017-06-17T02:38:44.524Z,929.54
2017-06-17T02:39:02.810Z,929.5
2017-06-17T02:39:22.147Z,929.54
2017-06-17T02:39:40.426Z,929.52
2017-06-17T02:39:59.740Z,929.51
2017-06-17T02:40:17.475Z,929.52
2017-06-17T02:40:36.806Z,929.53
2017-06-17T02:40:55.605Z,929.51
2017-06-17T02:41:14.925Z,929.51
2017-06-17T02:41:34.237Z,929.51
2017-06-17T02:41:53.524Z,929.52
2017-06-17T02:42:12.295Z,929.52
2017-06-17T02:42:32.218Z,929.52
2017-06-17T02:42:52.241Z,929.54
2017-06-17T02:43:12.266Z,929.54
2017-06-17T02:43:31.720Z,929.54
2017-06-17T02:43:51.157Z,929.54
2017-06-17T02:44:11.165Z,929.55
2017-06-17T02:44:31.172Z,929.51
2017-06-17T02:44:51.171Z,929.51
2017-06-17T02:45:11.188Z,929.52
2017-06-17T02:45:31.198Z,929.52
2017-06-17T02:45:51.200Z,929.54
2017-06-17T02:46:11.198Z,929.5
2017-06-17T02:46:30.650Z,929.53
2017-06-17T02:46:50.656Z,929.56
2017-06-17T02:47:10.107Z,929.53
2017-06-17T02:47:30.113Z,929.48
2017-06-17T02:47:50.127Z,929.51
2017-06-17T02:48:10.122Z,929.53
2017-06-17T02:48:30.124Z,929.54
2017-06-17T02:48:49.560Z,929.55
2017-06-17T02:49:09.549Z,929.56
2017-06-17T02:49:28.983Z,929.53
2017-06-17T02:49:48.987Z,929.57
2017-06-17T02:50:09.008Z,929.54
2017-06-17T02:50:29.021Z,929.57
2017-06-17T02:50:49.050Z,929.52
2017-06-17T02:51:09.048Z,929.49
2017-06-17T02:51:29.057Z,929.52
2017-06-17T02:51:49.058Z,929.51
2017-06-17T02:52:08.498Z,929.49
2017-06-17T02:52:28.484Z,929.5
2017-06-17T02:52:48.506Z,929.49
2017-06-17T02:53:08.514Z,929.5
2017-06-17T02:53:28.536Z,929.48
2017-06-17T02:53:48.534Z,929.46
2017-06-17T02:54:08.540Z,929.44
2017-06-17T02:54:28.544Z,929.46
2017-06-17T02:54:48.566Z,929.45
2017-06-17T02:55:08.581Z,929.47
2017-06-17T02:55:28.026Z,929.45
2017-06-17T02:55:48.059Z,929.42
2017-06-17T02:56:08.067Z,929.44
2017-06-17T02:56:26.944Z,929.44
2017-06-17T02:56:46.926Z,929.41
2017-06-17T02:57:06.962Z,929.42
2017-06-17T02:57:26.950Z,929.41
2017-06-17T02:57:46.999Z,929.4
2017-06-17T02:58:06.457Z,929.4
2017-06-17T02:58:25.897Z,929.39
2017-06-17T02:58:45.917Z,929.4
2017-06-17T02:59:05.906Z,929.38
2017-06-17T02:59:25.933Z,929.38
2017-06-17T02:59:45.341Z,929.43
2017-06-17T03:00:05.347Z,929.42
2017-06-17T03:00:25.376Z,929.4
2017-06-17T03:00:44.818Z,929.39
2017-06-17T03:01:04.823Z,929.4
2017-06-17T03:01:24.847Z,929.39
2017-06-17T03:01:44.884Z,929.39
2017-06-17T03:02:04.928Z,929.38
2017-06-17T03:02:23.854Z,929.41
2017-06-17T03:02:43.865Z,929.42
2017-06-17T03:03:03.884Z,929.4
2017-06-17T03:03:22.772Z,929.4
2017-06-17T03:03:42.760Z,929.43
2017-06-17T03:04:02.764Z,929.39
2017-06-17T03:04:22.787Z,929.41
2017-06-17T03:04:42.808Z,929.36
2017-06-17T03:05:02.826Z,929.36
2017-06-17T03:05:22.389Z,929.4
2017-06-17T03:05:41.816Z,929.36
2017-06-17T03:06:01.264Z,929.35
2017-06-17T03:06:20.719Z,929.37
2017-06-17T03:06:40.706Z,929.38
2017-06-17T03:07:00.705Z,929.37
2017-06-17T03:07:20.723Z,929.35
2017-06-17T03:07:40.152Z,929.39
2017-06-17T03:07:59.590Z,929.37
2017-06-17T03:08:19.605Z,929.4
2017-06-17T03:08:39.607Z,929.41
2017-06-17T03:08:59.586Z,929.39
2017-06-17T03:09:19.021Z,929.38
2017-06-17T03:09:38.473Z,929.38
2017-06-17T03:09:58.467Z,929.35
2017-06-17T03:10:17.906Z,929.38
2017-06-17T03:10:37.329Z,929.38
2017-06-17T03:10:57.340Z,929.4
2017-06-17T03:11:17.335Z,929.37
2017-06-17T03:11:37.321Z,929.36
2017-06-17T03:11:57.330Z,929.4
2017-06-17T03:12:17.326Z,929.35
2017-06-17T03:12:36.220Z,929.39
2017-06-17T03:12:56.227Z,929.38
2017-06-17T03:13:16.225Z,929.42
2017-06-17T03:13:35.649Z,929.41
2017-06-17T03:13:55.670Z,929.38
2017-06-17T03:14:15.657Z,929.41
2017-06-17T03:14:35.644Z,929.39
2017-06-17T03:14:55.639Z,929.38
2017-06-17T03:15:15.687Z,929.38
2017-06-17T03:15:35.676Z,929.39
2017-06-17T03:15:55.663Z,929.39
2017-06-17T03:16:15.660Z,929.37
2017-06-17T03:16:35.662Z,929.34
2017-06-17T03:16:55.664Z,929.37
2017-06-17T03:17:15.078Z,929.38
2017-06-17T03:17:35.077Z,929.34
2017-06-17T03:17:55.070Z,929.34
2017-06-17T03:18:15.048Z,929.31
2017-06-17T03:18:34.515Z,929.31
2017-06-17T03:18:54.527Z,929.29
2017-06-17T03:19:14.539Z,929.29
2017-06-17T03:19:33.977Z,929.3
2017-06-17T03:19:53.955Z,929.3
2017-06-17T03:20:14.090Z,929.29
2017-06-17T03:20:34.104Z,929.24
2017-06-17T03:20:54.111Z,929.23
2017-06-17T03:21:14.100Z,929.26
2017-06-17T03:21:33.547Z,929.22
2017-06-17T03:21:53.562Z,929.25
2017-06-17T03:22:13.040Z,929.24
2017-06-17T03:22:32.473Z,929.24
2017-06-17T03:22:52.479Z,929.24
2017-06-17T03:23:12.477Z,929.25
2017-06-17T03:23:32.490Z,929.2
2017-06-17T03:23:52.485Z,929.2
2017-06-17T03:24:11.956Z,929.23
2017-06-17T03:24:31.931Z,929.22
2017-06-17T03:24:51.934Z,929.22
2017-06-17T03:25:11.916Z,929.19
2017-06-17T03:25:31.910Z,929.2
2017-06-17T03:25:50.226Z,929.15
2017-06-17T03:26:10.238Z,929.15
2017-06-17T03:26:30.243Z,929.15
2017-06-17T03:26:49.133Z,929.14
2017-06-17T03:27:09.121Z,929.16
2017-06-17T03:27:29.132Z,929.12
2017-06-17T03:27:49.156Z,929.15
2017-06-17T03:28:09.151Z,929.13
2017-06-17T03:28:29.137Z,929.15
2017-06-17T03:28:48.577Z,929.16
2017-06-17T03:29:08.573Z,929.15
2017-06-17T03:29:28.560Z,929.17
2017-06-17T03:29:47.998Z,929.19
2017-06-17T03:30:07.449Z,929.18
2017-06-17T03:30:26.854Z,929.15
2017-06-17T03:30:46.835Z,929.17
2017-06-17T03:31:06.306Z,929.16
2017-06-17T03:31:26.329Z,929.16
2017-06-17T03:31:46.325Z,929.15
2017-06-17T03:32:24.967Z,929.13
2017-06-17T03:32:44.365Z,929.17
2017-06-17T03:33:03.152Z,929.15
2017-06-17T03:33:22.495Z,929.17
2017-06-17T03:33:40.764Z,929.18
2017-06-17T03:34:00.069Z,929.16
2017-06-17T03:34:19.347Z,929.16
2017-06-17T03:34:38.140Z,929.16
2017-06-17T03:34:57.432Z,929.17
2017-06-17T03:35:16.749Z,929.2
2017-06-17T03:35:36.044Z,929.2
2017-06-17T03:35:55.399Z,929.2
2017-06-17T03:36:14.707Z,929.2
2017-06-17T03:36:34.006Z,929.2
2017-06-17T03:36:53.293Z,929.18
2017-06-17T03:37:12.593Z,929.2
2017-06-17T03:37:31.902Z,929.2
2017-06-17T03:37:51.219Z,929.22
2017-06-17T03:38:10.516Z,929.2
2017-06-17T03:38:29.833Z,929.2
2017-06-17T03:38:49.131Z,929.17
2017-06-17T03:39:08.435Z,929.2
2017-06-17T03:39:27.730Z,929.18
2017-06-17T03:39:47.031Z,929.22
2017-06-17T03:40:06.327Z,929.18
2017-06-17T03:40:25.112Z,929.19
2017-06-17T03:40:44.403Z,929.18
2017-06-17T03:41:03.695Z,929.16
2017-06-17T03:41:23.028Z,929.2
2017-06-17T03:41:41.831Z,929.17
2017-06-17T03:42:00.639Z,929.18
2017-06-17T03:42:19.965Z,929.19
2017-06-17T03:42:39.255Z,929.19
2017-06-17T03:42:58.592Z,929.19
2017-06-17T03:43:17.390Z,929.2
2017-06-17T03:43:36.187Z,929.19
2017-06-17T03:43:55.475Z,929.23
2017-06-17T03:44:14.766Z,929.19
2017-06-17T03:44:33.019Z,929.2
2017-06-17T03:44:51.852Z,929.2
2017-06-17T03:45:11.128Z,929.22
2017-06-17T03:45:30.421Z,929.18
2017-06-17T03:45:49.725Z,929.18
2017-06-17T03:46:09.055Z,929.21
2017-06-17T03:46:28.349Z,929.16
2017-06-17T03:46:47.651Z,929.19
2017-06-17T03:47:06.955Z,929.15
2017-06-17T03:47:26.290Z,929.19
2017-06-17T03:47:45.582Z,929.18
2017-06-17T03:48:04.878Z,929.19
2017-06-17T03:48:24.202Z,929.18
2017-06-17T03:48:43.530Z,929.15
2017-06-17T03:49:02.841Z,929.17
2017-06-17T03:49:22.139Z,929.14
2017-06-17T03:49:41.489Z,929.11
2017-06-17T03:50:00.798Z,929.13
2017-06-17T03:50:20.131Z,929.11
2017-06-17T03:50:39.458Z,929.13
2017-06-17T03:50:58.805Z,929.13
2017-06-17T03:51:18.125Z,929.14
2017-06-17T03:51:37.431Z,929.12
2017-06-17T03:51:56.753Z,929.14
2017-06-17T03:52:16.082Z,929.14
2017-06-17T03:52:35.388Z,929.17
2017-06-17T03:52:54.743Z,929.11
2017-06-17T03:53:14.046Z,929.17
2017-06-17T03:53:33.351Z,929.14
2017-06-17T03:53:52.665Z,929.17
2017-06-17T03:54:11.997Z,929.13
2017-06-17T03:54:30.803Z,929.14
2017-06-17T03:54:50.109Z,929.16
2017-06-17T03:55:09.486Z,929.17
2017-06-17T03:55:28.791Z,929.17
2017-06-17T03:55:48.100Z,929.16
2017-06-17T03:56:07.400Z,929.18
2017-06-17T03:56:26.725Z,929.17
2017-06-17T03:56:45.501Z,929.2
2017-06-17T03:57:04.833Z,929.2
2017-06-17T03:57:24.135Z,929.18
2017-06-17T03:57:42.921Z,929.19
2017-06-17T03:58:01.701Z,929.18
2017-06-17T03:58:19.984Z,929.18
2017-06-17T03:58:38.754Z,929.16
2017-06-17T03:58:58.095Z,929.19
2017-06-17T03:59:16.878Z,929.2
2017-06-17T03:59:36.219Z,929.18
2017-06-17T03:59:55.543Z,929.19
2017-06-17T04:00:14.832Z,929.19
2017-06-17T04:00:32.603Z,929.21
2017-06-17T04:00:53.400Z,929.23
2017-06-17T04:01:12.167Z,929.22
2017-06-17T04:01:31.472Z,929.22
2017-06-17T04:01:50.285Z,929.21